createdAt,value
2019-01-06T00:01:10.343Z,31.77
2019-01-06T00:03:40.248Z,33.43
2019-01-06T00:06:10.534Z,32.40
2019-01-06T00:08:53.163Z,31.63
2019-01-06T00:11:20.607Z,30.23
2019-01-06T00:13:50.637Z,30.37
2019-01-06T00:16:20.898Z,30.37
2019-01-06T00:19:03.439Z,33.23
2019-01-06T00:21:49.230Z,31.33
2019-01-06T00:24:19.441Z,32.60
2019-01-06T00:27:01.809Z,32.50
2019-01-06T00:29:47.349Z,32.40
2019-01-06T00:32:14.776Z,33.93
2019-01-06T00:34:48.158Z,32.37
2019-01-06T00:37:21.558Z,32.17
2019-01-06T00:39:54.566Z,32.63
2019-01-06T00:42:24.822Z,35.53
2019-01-06T00:44:58.041Z,31.97
2019-01-06T00:47:43.552Z,35.93
2019-01-06T00:50:29.558Z,34.80
2019-01-06T00:53:15.368Z,32.90
2019-01-06T00:56:01.087Z,35.07
2019-01-06T00:58:46.719Z,34.20
2019-01-06T01:01:32.394Z,35.70
2019-01-06T01:04:02.844Z,34.10
2019-01-06T01:06:39.209Z,37.43
2019-01-06T01:09:43.188Z,36.37
2019-01-06T01:12:28.924Z,36.63
2019-01-06T01:14:56.369Z,38.87
2019-01-06T01:17:41.962Z,40.73
2019-01-06T01:20:09.364Z,41.03
2019-01-06T01:22:39.615Z,39.47
2019-01-06T01:25:25.445Z,39.90
2019-01-06T01:28:10.765Z,39.30
2019-01-06T01:30:38.195Z,41.47
2019-01-06T01:33:08.612Z,43.07
2019-01-06T01:35:51.264Z,40.70
2019-01-06T01:38:27.981Z,38.83
2019-01-06T01:40:55.442Z,40.43
2019-01-06T01:43:22.858Z,40.33
2019-01-06T01:46:08.327Z,39.27
2019-01-06T01:48:38.376Z,41.10
2019-01-06T01:51:09.044Z,40.77
2019-01-06T01:53:54.571Z,41.87
2019-01-06T01:56:24.848Z,42.97
2019-01-06T01:59:04.257Z,42.23
2019-01-06T02:01:31.735Z,45.13
2019-01-06T02:04:17.029Z,39.37
2019-01-06T02:06:44.478Z,40.87
2019-01-06T02:09:24.109Z,41.20
2019-01-06T02:11:51.548Z,43.77
2019-01-06T02:14:37.018Z,41.33
2019-01-06T02:17:19.724Z,40.37
2019-01-06T02:19:53.020Z,39.47
2019-01-06T02:22:23.370Z,41.47
2019-01-06T02:24:53.496Z,40.57
2019-01-06T02:27:39.027Z,39.90
2019-01-06T02:30:09.173Z,39.90
2019-01-06T02:32:42.156Z,38.80
2019-01-06T02:35:27.437Z,41.07
2019-01-06T02:38:13.098Z,40.13
2019-01-06T02:40:58.869Z,39.10
2019-01-06T02:43:38.497Z,37.90
2019-01-06T02:46:14.747Z,39.80
2019-01-06T02:48:57.138Z,38.03
2019-01-06T02:51:42.777Z,38.70
2019-01-06T02:54:13.142Z,43.37
2019-01-06T02:56:58.646Z,38.47
2019-01-06T02:59:34.820Z,40.37
2019-01-06T03:02:04.950Z,42.00
2019-01-06T03:04:35.468Z,40.30
2019-01-06T03:07:05.605Z,43.67
2019-01-06T03:09:33.043Z,39.13
2019-01-06T03:12:12.571Z,40.47
2019-01-06T03:14:42.953Z,39.40
2019-01-06T03:17:22.401Z,39.27
2019-01-06T03:19:52.613Z,39.97
2019-01-06T03:22:38.378Z,40.43
2019-01-06T03:25:24.017Z,40.17
2019-01-06T03:28:09.289Z,39.87
2019-01-06T03:30:36.705Z,40.63
2019-01-06T03:33:04.117Z,39.07
2019-01-06T03:35:50.012Z,38.87
2019-01-06T03:38:17.413Z,37.63
2019-01-06T03:40:53.768Z,39.80
2019-01-06T03:43:29.916Z,37.17
2019-01-06T03:46:12.581Z,36.27
2019-01-06T03:48:58.011Z,38.27
2019-01-06T03:51:40.541Z,35.63
2019-01-06T03:54:07.944Z,36.70
2019-01-06T03:56:38.281Z,35.53
2019-01-06T03:59:08.318Z,36.43
2019-01-06T04:01:53.988Z,41.58
2019-01-06T04:04:33.489Z,35.33
2019-01-06T04:07:00.932Z,33.53
2019-01-06T04:09:46.320Z,34.60
2019-01-06T04:12:32.262Z,31.57
2019-01-06T04:15:05.202Z,33.53
2019-01-06T04:17:38.625Z,34.87
2019-01-06T04:20:24.340Z,32.57
2019-01-06T04:22:51.766Z,33.17
2019-01-06T04:25:25.059Z,33.20
2019-01-06T04:28:10.931Z,32.90
2019-01-06T04:30:38.334Z,36.97
2019-01-06T04:33:23.776Z,33.63
2019-01-06T04:36:09.098Z,36.93
2019-01-06T04:38:48.712Z,34.97
2019-01-06T04:41:16.120Z,35.87
2019-01-06T04:43:43.554Z,36.73
2019-01-06T04:46:10.982Z,37.60
2019-01-06T04:48:56.504Z,34.83
2019-01-06T04:51:41.772Z,36.63
2019-01-06T04:54:09.183Z,36.30
2019-01-06T04:56:54.935Z,38.00
2019-01-06T04:59:34.439Z,35.80
2019-01-06T05:02:10.824Z,38.30
2019-01-06T05:04:50.325Z,36.83
2019-01-06T05:07:17.734Z,39.77
2019-01-06T05:10:03.479Z,36.53
2019-01-06T05:12:42.817Z,38.73
2019-01-06T05:15:10.249Z,38.97
2019-01-06T05:17:37.678Z,39.87
2019-01-06T05:20:23.103Z,39.63
2019-01-06T05:22:50.503Z,37.50
2019-01-06T05:25:17.915Z,37.13
2019-01-06T05:27:57.193Z,36.50
2019-01-06T05:30:30.157Z,34.47
2019-01-06T05:33:00.607Z,37.90
2019-01-06T05:35:30.853Z,35.13
2019-01-06T05:38:06.925Z,37.30
2019-01-06T05:40:37.230Z,38.93
2019-01-06T05:43:16.960Z,38.93
2019-01-06T05:46:02.551Z,36.43
2019-01-06T05:48:48.320Z,38.60
2019-01-06T05:51:21.264Z,37.27
2019-01-06T05:54:03.805Z,36.90
2019-01-06T05:56:36.905Z,37.77
2019-01-06T05:59:10.302Z,35.70
2019-01-06T06:01:52.755Z,39.17
2019-01-06T06:04:20.189Z,39.10
2019-01-06T06:06:50.313Z,39.80
2019-01-06T06:09:35.715Z,38.70
2019-01-06T06:12:11.802Z,39.33
2019-01-06T06:14:48.107Z,41.10
2019-01-06T06:17:18.332Z,40.57
2019-01-06T06:19:45.734Z,38.67
2019-01-06T06:22:13.166Z,38.43
2019-01-06T06:24:43.256Z,39.77
2019-01-06T06:27:13.367Z,40.07
2019-01-06T06:29:58.839Z,40.50
2019-01-06T06:32:44.386Z,39.40
2019-01-06T06:35:29.901Z,44.03
2019-01-06T06:37:57.347Z,40.60
2019-01-06T06:40:30.946Z,38.33
2019-01-06T06:43:04.571Z,39.07
2019-01-06T06:45:37.990Z,40.30
2019-01-06T06:48:14.361Z,39.87
2019-01-06T06:50:59.232Z,39.80
2019-01-06T06:53:29.336Z,39.53
2019-01-06T06:56:02.924Z,40.70
2019-01-06T06:58:32.880Z,38.53
2019-01-06T07:01:26.798Z,39.47
2019-01-06T07:03:56.906Z,38.77
2019-01-06T07:06:42.668Z,38.37
2019-01-06T07:09:15.825Z,37.87
2019-01-06T07:11:55.080Z,37.67
2019-01-06T07:14:25.435Z,37.47
2019-01-06T07:17:32.876Z,37.33
2019-01-06T07:20:06.402Z,37.27
2019-01-06T07:22:51.978Z,36.07
2019-01-06T07:25:19.382Z,37.63
2019-01-06T07:28:05.354Z,39.83
2019-01-06T07:30:32.764Z,35.43
2019-01-06T07:33:09.176Z,36.60
2019-01-06T07:35:55.094Z,38.13
2019-01-06T07:38:31.496Z,37.87
2019-01-06T07:41:14.291Z,39.30
2019-01-06T07:43:41.708Z,37.13
2019-01-06T07:46:09.105Z,37.40
2019-01-06T07:48:36.549Z,36.30
2019-01-06T07:51:03.949Z,38.50
2019-01-06T07:53:33.945Z,36.70
2019-01-06T07:56:13.490Z,38.20
2019-01-06T07:58:58.998Z,37.30
2019-01-06T08:01:32.383Z,36.33
2019-01-06T08:04:17.758Z,37.10
2019-01-06T08:06:45.178Z,37.57
2019-01-06T08:09:18.680Z,35.63
2019-01-06T08:11:46.118Z,35.73
2019-01-06T08:14:16.309Z,38.30
2019-01-06T08:17:01.731Z,36.90
2019-01-06T08:19:29.163Z,38.63
2019-01-06T08:22:08.531Z,35.87
2019-01-06T08:24:36.008Z,36.93
2019-01-06T08:27:21.516Z,36.83
2019-01-06T08:29:48.958Z,36.10
2019-01-06T08:32:22.155Z,36.00
2019-01-06T08:34:52.056Z,34.20
2019-01-06T08:37:37.838Z,34.70
2019-01-06T08:40:23.215Z,35.30
2019-01-06T08:42:53.618Z,35.17
2019-01-06T08:45:39.324Z,34.87
2019-01-06T08:48:18.781Z,32.80
2019-01-06T08:50:55.367Z,32.10
2019-01-06T08:53:40.649Z,35.33
2019-01-06T08:56:14.045Z,33.10
2019-01-06T08:58:44.279Z,31.40
2019-01-06T09:01:11.726Z,34.40
2019-01-06T09:03:41.714Z,31.60
2019-01-06T09:06:27.229Z,32.63
2019-01-06T09:08:54.633Z,30.43
2019-01-06T09:11:31.206Z,35.00
2019-01-06T09:14:11.034Z,32.83
2019-01-06T09:16:56.595Z,31.33
2019-01-06T09:19:49.949Z,32.03
2019-01-06T09:22:15.618Z,33.87
2019-01-06T09:25:01.621Z,31.13
2019-01-06T09:27:38.063Z,32.87
2019-01-06T09:30:05.466Z,31.60
2019-01-06T09:32:44.736Z,29.80
2019-01-06T09:35:31.184Z,29.83
2019-01-06T09:38:09.578Z,29.03
2019-01-06T09:40:47.549Z,30.67
2019-01-06T09:43:13.249Z,30.53
2019-01-06T09:45:46.216Z,30.37
2019-01-06T09:48:13.669Z,28.10
2019-01-06T09:50:59.128Z,30.17
2019-01-06T09:53:44.907Z,29.73
2019-01-06T09:56:18.352Z,29.50
2019-01-06T09:59:04.084Z,30.93
2019-01-06T10:01:40.265Z,31.00
2019-01-06T10:04:10.211Z,28.77
2019-01-06T10:06:37.639Z,29.13
2019-01-06T10:09:07.985Z,30.03
2019-01-06T10:11:53.573Z,30.30
2019-01-06T10:14:33.246Z,30.57
2019-01-06T10:17:00.689Z,30.13
2019-01-06T10:19:36.954Z,30.20
2019-01-06T10:22:10.337Z,31.53
2019-01-06T10:24:51.634Z,31.33
2019-01-06T10:27:11.231Z,33.53
2019-01-06T10:29:41.213Z,36.33
2019-01-06T10:32:08.581Z,32.77
2019-01-06T10:34:54.125Z,32.17
2019-01-06T10:37:27.630Z,32.33
2019-01-06T10:40:04.113Z,34.13
2019-01-06T10:42:49.456Z,33.37
2019-01-06T10:45:24.274Z,32.07
2019-01-06T10:48:05.130Z,35.85
2019-01-06T10:50:41.563Z,32.23
2019-01-06T10:53:14.673Z,30.70
2019-01-06T10:55:47.875Z,33.23
2019-01-06T10:58:33.424Z,32.23
2019-01-06T11:01:13.156Z,34.60
2019-01-06T11:03:43.642Z,34.97
2019-01-06T11:06:13.673Z,32.73
2019-01-06T11:08:41.105Z,34.17
2019-01-06T11:11:26.581Z,32.63
2019-01-06T11:14:06.207Z,31.87
2019-01-06T11:16:48.729Z,31.30
2019-01-06T11:19:16.168Z,31.83
2019-01-06T11:21:43.586Z,34.57
2019-01-06T11:24:29.062Z,33.00
2019-01-06T11:27:05.035Z,32.17
2019-01-06T11:29:50.894Z,30.13
2019-01-06T11:32:30.357Z,31.20
2019-01-06T11:34:57.810Z,33.00
2019-01-06T11:37:30.965Z,30.37
2019-01-06T11:40:16.586Z,31.27
2019-01-06T11:42:44.047Z,29.80
2019-01-06T11:45:26.771Z,29.10
2019-01-06T11:48:12.681Z,29.67
2019-01-06T11:50:58.214Z,28.20
2019-01-06T11:53:34.608Z,30.77
2019-01-06T11:56:07.780Z,28.63
2019-01-06T11:58:47.344Z,30.07
2019-01-06T12:01:20.440Z,28.03
2019-01-06T12:03:47.867Z,29.10
2019-01-06T12:06:24.133Z,30.53
2019-01-06T12:08:54.333Z,28.80
2019-01-06T12:11:40.095Z,29.10
2019-01-06T12:14:16.827Z,30.33
2019-01-06T12:16:56.259Z,30.90
2019-01-06T12:19:33.552Z,26.63
2019-01-06T12:22:11.905Z,28.00
2019-01-06T12:24:57.490Z,27.77
2019-01-06T12:27:42.864Z,26.07
2019-01-06T12:30:25.260Z,27.57
2019-01-06T12:32:52.596Z,26.77
2019-01-06T12:35:38.459Z,26.27
2019-01-06T12:38:18.038Z,23.93
2019-01-06T12:41:03.525Z,23.70
2019-01-06T12:43:30.936Z,23.83
2019-01-06T12:45:58.405Z,22.90
2019-01-06T12:48:25.800Z,24.43
2019-01-06T12:50:55.862Z,22.10
2019-01-06T12:53:26.257Z,22.93
2019-01-06T12:56:05.756Z,22.77
2019-01-06T12:58:33.189Z,22.07
2019-01-06T13:01:09.835Z,21.07
2019-01-06T13:03:46.419Z,19.60
2019-01-06T13:06:19.664Z,22.07
2019-01-06T13:08:56.246Z,20.67
2019-01-06T13:11:41.607Z,21.73
2019-01-06T13:14:27.478Z,21.43
2019-01-06T13:16:57.659Z,22.50
2019-01-06T13:19:31.057Z,22.57
2019-01-06T13:22:01.187Z,19.83
2019-01-06T13:24:31.354Z,24.07
2019-01-06T13:27:16.908Z,22.87
2019-01-06T13:29:56.632Z,20.87
2019-01-06T13:32:39.387Z,19.33
2019-01-06T13:35:24.947Z,20.57
2019-01-06T13:37:55.158Z,21.00
2019-01-06T13:40:31.664Z,21.73
2019-01-06T13:43:01.699Z,23.07
2019-01-06T13:45:29.114Z,21.23
2019-01-06T13:47:57.269Z,19.73
2019-01-06T13:50:26.870Z,20.97
2019-01-06T13:53:03.555Z,20.83
2019-01-06T13:55:39.929Z,22.47
2019-01-06T13:58:22.828Z,21.87
2019-01-06T14:00:52.887Z,21.73
2019-01-06T14:03:26.241Z,23.13
2019-01-06T14:06:11.775Z,22.10
2019-01-06T14:08:41.913Z,22.43
2019-01-06T14:11:18.408Z,22.93
2019-01-06T14:13:48.695Z,20.70
2019-01-06T14:16:28.261Z,23.45
2019-01-06T14:18:55.668Z,22.10
2019-01-06T14:21:38.068Z,21.83
2019-01-06T14:24:14.682Z,26.63
2019-01-06T14:26:50.336Z,26.37
2019-01-06T14:29:40.104Z,23.93
2019-01-06T14:32:12.556Z,24.80
2019-01-06T14:34:45.497Z,24.42
2019-01-06T14:37:32.205Z,23.15
2019-01-06T14:40:05.432Z,22.03
2019-01-06T14:42:32.869Z,23.80
2019-01-06T14:45:03.465Z,23.73
2019-01-06T14:47:49.867Z,21.40
2019-01-06T14:50:19.936Z,24.43
2019-01-06T14:53:02.542Z,24.90
2019-01-06T14:55:42.042Z,25.50
2019-01-06T14:58:15.092Z,24.47
2019-01-06T15:00:48.065Z,25.30
2019-01-06T15:03:15.481Z,25.43
2019-01-06T15:05:42.905Z,26.30
2019-01-06T15:08:25.436Z,26.03
2019-01-06T15:10:52.837Z,26.57
2019-01-06T15:13:23.068Z,28.03
2019-01-06T15:15:56.365Z,25.27
2019-01-06T15:18:41.682Z,25.07
2019-01-06T15:21:27.091Z,29.70
2019-01-06T15:24:00.307Z,28.47
2019-01-06T15:26:46.007Z,28.37
2019-01-06T15:29:21.272Z,32.03
2019-01-06T15:31:51.660Z,30.73
2019-01-06T15:34:28.032Z,31.17
2019-01-06T15:37:07.508Z,33.57
2019-01-06T15:39:53.355Z,33.37
2019-01-06T15:42:39.135Z,32.37
2019-01-06T15:45:12.358Z,34.10
2019-01-06T15:47:48.812Z,32.87
2019-01-06T15:50:25.359Z,32.67
2019-01-06T15:53:01.716Z,31.57
2019-01-06T15:55:29.141Z,32.33
2019-01-06T15:57:56.575Z,33.37
2019-01-06T16:00:23.970Z,33.63
2019-01-06T16:03:09.657Z,34.30
2019-01-06T16:05:49.108Z,35.73
2019-01-06T16:08:28.478Z,33.97
2019-01-06T16:11:13.994Z,36.13
2019-01-06T16:13:44.020Z,34.70
2019-01-06T16:16:29.435Z,36.07
2019-01-06T16:18:56.810Z,35.53
2019-01-06T16:21:42.212Z,34.23
2019-01-06T16:24:27.525Z,36.17
2019-01-06T16:26:55.007Z,36.07
2019-01-06T16:29:34.550Z,35.37
2019-01-06T16:32:04.998Z,36.50
2019-01-06T16:34:35.302Z,35.67
2019-01-06T16:37:05.407Z,54.87
2019-01-06T16:39:38.827Z,37.23
2019-01-06T16:42:08.769Z,39.97
2019-01-06T16:44:44.966Z,38.30
2019-01-06T16:47:30.792Z,37.73
2019-01-06T16:50:04.194Z,49.07
2019-01-06T16:52:37.791Z,44.23
2019-01-06T16:55:23.179Z,48.13
2019-01-06T16:57:53.435Z,50.67
2019-01-06T17:00:23.890Z,45.37
2019-01-06T17:02:51.370Z,48.73
2019-01-06T17:05:33.619Z,47.80
2019-01-06T17:08:19.347Z,40.53
2019-01-06T17:10:52.916Z,44.73
2019-01-06T17:13:32.306Z,47.47
2019-01-06T17:16:02.293Z,46.70
2019-01-06T17:18:32.158Z,45.63
2019-01-06T17:21:08.487Z,41.73
2019-01-06T17:23:54.352Z,48.13
2019-01-06T17:26:27.642Z,43.97
2019-01-06T17:29:03.921Z,46.60
2019-01-06T17:31:31.357Z,41.23
2019-01-06T17:34:01.742Z,45.43
2019-01-06T17:36:29.263Z,45.90
2019-01-06T17:38:59.825Z,43.57
2019-01-06T17:41:27.261Z,47.00
2019-01-06T17:44:13.124Z,55.93
2019-01-06T17:46:58.816Z,46.83
2019-01-06T17:49:37.798Z,45.37
2019-01-06T17:52:05.256Z,48.67
2019-01-06T17:54:32.687Z,56.33
2019-01-06T17:57:09.086Z,46.13
2019-01-06T17:59:45.506Z,45.57
2019-01-06T18:02:24.704Z,44.67
2019-01-06T18:04:52.091Z,46.97
2019-01-06T18:07:25.330Z,47.27
2019-01-06T18:09:52.752Z,44.97
2019-01-06T18:12:22.653Z,46.20
2019-01-06T18:14:52.916Z,44.97
2019-01-06T18:17:32.357Z,43.70
2019-01-06T18:20:11.835Z,46.57
2019-01-06T18:22:51.610Z,53.97
2019-01-06T18:25:34.090Z,50.10
2019-01-06T18:28:04.319Z,50.00
2019-01-06T18:30:31.818Z,48.47
2019-01-06T18:32:59.256Z,47.73
2019-01-06T18:35:29.904Z,46.97
2019-01-06T18:37:57.364Z,44.63
2019-01-06T18:40:43.199Z,57.13
2019-01-06T18:43:13.047Z,52.07
2019-01-06T18:45:52.096Z,50.10
2019-01-06T18:48:22.254Z,51.03
2019-01-06T18:51:04.704Z,57.10
2019-01-06T18:53:37.730Z,49.67
2019-01-06T18:56:10.976Z,51.40
2019-01-06T18:58:50.185Z,51.20
2019-01-06T19:01:17.666Z,51.30
2019-01-06T19:03:48.285Z,53.20
2019-01-06T19:06:27.791Z,49.50
2019-01-06T19:09:03.836Z,51.50
2019-01-06T19:11:37.293Z,51.93
2019-01-06T19:14:16.893Z,45.67
2019-01-06T19:16:44.327Z,49.37
2019-01-06T19:19:14.806Z,50.47
2019-01-06T19:21:44.830Z,50.53
2019-01-06T19:24:30.265Z,52.97
2019-01-06T19:27:06.851Z,55.13
2019-01-06T19:29:37.045Z,51.73
2019-01-06T19:32:16.716Z,49.87
2019-01-06T19:34:44.174Z,48.40
2019-01-06T19:37:29.876Z,56.53
2019-01-06T19:40:00.088Z,56.83
2019-01-06T19:42:45.670Z,55.20
2019-01-06T19:45:15.966Z,53.90
2019-01-06T19:47:43.386Z,53.17
2019-01-06T19:50:29.374Z,53.10
2019-01-06T19:52:56.850Z,51.87
2019-01-06T19:55:27.100Z,57.43
2019-01-06T19:58:12.892Z,55.50
2019-01-06T20:00:52.403Z,52.23
2019-01-06T20:03:38.181Z,53.33
2019-01-06T20:06:11.721Z,60.77
2019-01-06T20:08:57.480Z,57.57
2019-01-06T20:11:37.017Z,61.93
2019-01-06T20:14:04.444Z,57.03
2019-01-06T20:16:31.886Z,56.33
2019-01-06T20:19:17.392Z,60.53
2019-01-06T20:21:44.886Z,59.70
2019-01-06T20:24:27.563Z,58.20
2019-01-06T20:27:13.214Z,62.97
2019-01-06T20:29:49.709Z,63.70
2019-01-06T20:32:19.841Z,56.80
2019-01-06T20:35:02.170Z,61.57
2019-01-06T20:37:32.409Z,69.80
2019-01-06T20:39:59.849Z,56.97
2019-01-06T20:42:39.378Z,57.63
2019-01-06T20:45:26.820Z,59.00
2019-01-06T20:48:04.125Z,58.43
2019-01-06T20:50:34.223Z,57.33
2019-01-06T20:53:07.677Z,52.67
2019-01-06T20:55:35.125Z,57.47
2019-01-06T20:58:05.251Z,56.97
2019-01-06T21:00:41.343Z,57.00
2019-01-06T21:03:26.955Z,61.67
2019-01-06T21:05:54.434Z,62.93
2019-01-06T21:08:21.847Z,62.47
2019-01-06T21:10:52.112Z,62.83
2019-01-06T21:13:25.366Z,61.33
2019-01-06T21:15:52.904Z,58.77
2019-01-06T21:18:26.343Z,60.60
2019-01-06T21:21:08.988Z,63.43
2019-01-06T21:23:54.590Z,62.80
2019-01-06T21:26:22.054Z,56.90
2019-01-06T21:28:55.656Z,59.40
2019-01-06T21:31:28.903Z,62.90
2019-01-06T21:34:02.114Z,60.80
2019-01-06T21:36:32.079Z,61.23
2019-01-06T21:39:05.227Z,64.20
2019-01-06T21:41:38.792Z,60.57
2019-01-06T21:44:24.472Z,62.87
2019-01-06T21:47:10.240Z,63.80
2019-01-06T21:49:40.240Z,63.10
2019-01-06T21:52:07.714Z,62.47
2019-01-06T21:54:53.013Z,60.27
2019-01-06T21:57:20.445Z,62.30
2019-01-06T22:00:06.170Z,63.30
2019-01-06T22:02:42.535Z,64.37
2019-01-06T22:05:28.406Z,61.83
2019-01-06T22:08:14.119Z,62.60
2019-01-06T22:10:59.604Z,62.77
2019-01-06T22:13:27.122Z,62.70
2019-01-06T22:15:54.503Z,61.27
2019-01-06T22:18:33.773Z,61.50
2019-01-06T22:21:06.961Z,62.27
2019-01-06T22:23:34.396Z,60.87
2019-01-06T22:26:19.917Z,56.83
2019-01-06T22:29:05.351Z,61.13
2019-01-06T22:31:32.793Z,63.97
2019-01-06T22:34:09.140Z,61.30
2019-01-06T22:36:48.287Z,62.30
2019-01-06T22:39:15.717Z,61.80
2019-01-06T22:42:01.506Z,62.50
2019-01-06T22:44:31.392Z,64.07
2019-01-06T22:47:17.199Z,64.80
2019-01-06T22:50:02.699Z,58.87
2019-01-06T22:52:36.875Z,62.20
2019-01-06T22:55:06.407Z,65.03
2019-01-06T22:57:51.698Z,62.57
2019-01-06T23:00:40.211Z,65.03
2019-01-06T23:03:25.663Z,62.37
2019-01-06T23:05:59.076Z,64.57
2019-01-06T23:08:26.489Z,65.63
2019-01-06T23:11:12.221Z,65.07
2019-01-06T23:13:48.213Z,64.73
2019-01-06T23:16:33.996Z,64.50
2019-01-06T23:19:20.025Z,59.23
2019-01-06T23:21:56.605Z,65.03
2019-01-06T23:24:42.427Z,64.80
2019-01-06T23:27:18.787Z,62.97
2019-01-06T23:29:49.227Z,63.30
2019-01-06T23:32:35.242Z,62.83
2019-01-06T23:35:05.255Z,64.40
2019-01-06T23:37:35.290Z,60.47
2019-01-06T23:40:11.816Z,61.93
2019-01-06T23:42:45.116Z,63.03
2019-01-06T23:45:12.538Z,62.63
2019-01-06T23:47:39.976Z,65.00
2019-01-06T23:50:13.391Z,62.00
2019-01-06T23:52:40.812Z,60.27
2019-01-06T23:55:26.353Z,62.80
2019-01-06T23:57:53.801Z,59.37
